createdAt,value
2019-05-25T00:00:40.739Z,18.40
2019-05-25T00:05:45.771Z,18.43
2019-05-25T00:10:50.940Z,18.42
2019-05-25T00:15:55.991Z,18.43
2019-05-25T00:21:01.017Z,18.40
2019-05-25T00:26:06.082Z,18.39
2019-05-25T00:31:12.222Z,18.35
2019-05-25T00:36:17.405Z,18.34
2019-05-25T00:41:22.561Z,18.37
2019-05-25T00:46:27.612Z,18.41
2019-05-25T00:51:32.696Z,18.34
2019-05-25T00:56:37.750Z,18.32
2019-05-25T01:01:42.831Z,18.31
2019-05-25T01:06:48.002Z,18.31
2019-05-25T01:11:53.030Z,18.32
2019-05-25T01:16:58.079Z,18.28
2019-05-25T01:22:03.653Z,18.25
2019-05-25T01:27:09.042Z,18.23
2019-05-25T01:32:14.417Z,18.22
2019-05-25T01:37:19.455Z,18.22
2019-05-25T01:42:24.602Z,18.19
2019-05-25T01:47:29.624Z,18.16
2019-05-25T01:52:34.663Z,18.20
2019-05-25T01:57:40.762Z,18.18
2019-05-25T02:02:45.799Z,18.19
2019-05-25T02:07:50.840Z,18.17
2019-05-25T02:12:55.971Z,18.06
2019-05-25T02:18:00.994Z,17.92
2019-05-25T02:23:06.431Z,17.96
2019-05-25T02:28:11.464Z,17.92
2019-05-25T02:33:17.591Z,17.85
2019-05-25T02:38:25.431Z,17.80
2019-05-25T02:43:32.253Z,17.70
2019-05-25T02:48:39.707Z,17.54
2019-05-25T02:53:46.329Z,17.42
2019-05-25T02:58:51.326Z,17.37
2019-05-25T03:03:56.378Z,17.40
2019-05-25T03:09:01.797Z,17.32
2019-05-25T03:14:06.946Z,17.18
2019-05-25T03:19:12.314Z,17.09
2019-05-25T03:24:17.365Z,16.97
2019-05-25T03:29:22.426Z,16.89
2019-05-25T03:34:27.515Z,16.82
2019-05-25T03:39:34.031Z,16.72
2019-05-25T03:44:39.076Z,16.67
2019-05-25T03:49:44.138Z,16.58
2019-05-25T03:54:49.249Z,16.54
2019-05-25T03:59:54.254Z,16.46
2019-05-25T04:04:59.299Z,16.29
2019-05-25T04:10:06.065Z,16.24
2019-05-25T04:15:15.592Z,16.18
2019-05-25T04:20:20.651Z,16.11
2019-05-25T04:25:26.039Z,15.99
2019-05-25T04:30:31.105Z,15.88
2019-05-25T04:35:36.217Z,15.81
2019-05-25T04:40:41.341Z,15.75
2019-05-25T04:45:46.479Z,15.69
2019-05-25T04:50:51.522Z,15.70
2019-05-25T04:55:56.611Z,15.70
2019-05-25T05:01:01.691Z,15.69
2019-05-25T05:06:06.779Z,15.69
2019-05-25T05:11:11.789Z,15.60
2019-05-25T05:16:16.904Z,15.61
2019-05-25T05:21:21.891Z,15.58
2019-05-25T05:26:26.975Z,15.47
2019-05-25T05:31:32.333Z,15.37
2019-05-25T05:36:37.897Z,15.38
2019-05-25T05:41:42.949Z,15.52
2019-05-25T05:46:48.092Z,15.42
2019-05-25T05:51:53.773Z,15.39
2019-05-25T05:57:11.613Z,15.42
2019-05-25T06:02:05.492Z,15.51
2019-05-25T06:07:10.554Z,15.49
2019-05-25T06:12:16.031Z,15.49
2019-05-25T06:17:22.104Z,15.63
2019-05-25T06:22:27.159Z,15.79
2019-05-25T06:27:32.710Z,15.81
2019-05-25T06:32:37.794Z,15.82
2019-05-25T06:37:43.158Z,15.92
2019-05-25T06:42:48.268Z,15.87
2019-05-25T06:47:53.303Z,15.82
2019-05-25T06:52:58.370Z,15.73
2019-05-25T06:58:03.482Z,15.69
2019-05-25T07:03:08.535Z,15.50
2019-05-25T07:08:13.747Z,15.60
2019-05-25T07:13:18.852Z,15.71
2019-05-25T07:18:23.867Z,15.70
2019-05-25T07:23:28.936Z,15.82
2019-05-25T07:28:33.966Z,15.96
2019-05-25T07:33:39.014Z,15.95
2019-05-25T07:38:44.099Z,16.00
2019-05-25T07:43:49.551Z,16.07
2019-05-25T07:48:54.630Z,16.12
2019-05-25T07:53:59.679Z,16.30
2019-05-25T07:59:04.736Z,16.26
2019-05-25T08:04:09.952Z,16.35
2019-05-25T08:09:15.054Z,16.15
2019-05-25T08:14:20.126Z,16.17
2019-05-25T08:19:25.145Z,16.42
2019-05-25T08:24:30.269Z,16.32
2019-05-25T08:29:35.627Z,16.25
2019-05-25T08:34:40.702Z,16.41
2019-05-25T08:39:45.865Z,16.41
2019-05-25T08:44:51.233Z,16.75
2019-05-25T08:49:56.443Z,16.75
2019-05-25T08:55:01.535Z,16.65
2019-05-25T09:00:08.598Z,16.98
2019-05-25T09:05:13.755Z,17.15
2019-05-25T09:10:19.528Z,17.05
2019-05-25T09:15:24.830Z,17.08
2019-05-25T09:20:29.857Z,17.19
2019-05-25T09:25:35.075Z,17.17
2019-05-25T09:30:40.045Z,17.28
2019-05-25T09:35:45.416Z,17.37
2019-05-25T09:40:50.476Z,17.48
2019-05-25T09:45:55.529Z,17.47
2019-05-25T09:51:00.620Z,17.65
2019-05-25T09:56:05.643Z,17.69
2019-05-25T10:01:10.749Z,17.68
2019-05-25T10:06:15.755Z,17.79
2019-05-25T10:11:20.849Z,17.92
2019-05-25T10:16:26.239Z,18.15
2019-05-25T10:21:31.330Z,18.18
2019-05-25T10:26:36.421Z,18.20
2019-05-25T10:31:41.504Z,18.16
2019-05-25T10:36:46.541Z,18.20
2019-05-25T10:41:52.699Z,18.30
2019-05-25T10:46:57.830Z,18.28
2019-05-25T10:52:02.817Z,18.65
2019-05-25T10:57:08.977Z,18.73
2019-05-25T11:02:14.018Z,19.03
2019-05-25T11:07:20.709Z,19.17
2019-05-25T11:12:26.192Z,19.54
2019-05-25T11:17:31.299Z,19.63
2019-05-25T11:22:37.438Z,19.69
2019-05-25T11:27:42.427Z,19.98
2019-05-25T11:32:47.457Z,20.39
2019-05-25T11:37:52.545Z,20.45
2019-05-25T11:42:57.649Z,20.90
2019-05-25T11:48:02.692Z,20.53
2019-05-25T11:53:07.750Z,19.99
2019-05-25T11:58:13.487Z,19.36
2019-05-25T12:03:18.943Z,19.08
2019-05-25T12:08:24.097Z,18.95
2019-05-25T12:13:32.062Z,19.45
2019-05-25T12:18:35.942Z,19.76
2019-05-25T12:23:40.973Z,20.32
2019-05-25T12:28:46.557Z,20.73
2019-05-25T12:33:51.647Z,21.14
2019-05-25T12:38:56.715Z,21.15
2019-05-25T12:44:01.843Z,21.46
2019-05-25T12:49:06.991Z,20.94
2019-05-25T12:54:14.022Z,21.10
2019-05-25T12:59:20.283Z,20.92
2019-05-25T13:04:25.320Z,21.33
2019-05-25T13:09:30.334Z,21.07
2019-05-25T13:14:35.345Z,20.75
2019-05-25T13:19:40.380Z,20.64
2019-05-25T13:24:45.494Z,20.90
2019-05-25T13:29:51.112Z,21.77
2019-05-25T13:34:56.357Z,21.83
2019-05-25T13:40:01.452Z,21.05
2019-05-25T13:45:07.979Z,20.75
2019-05-25T13:50:13.578Z,20.47
2019-05-25T13:55:19.035Z,21.30
2019-05-25T14:00:24.146Z,21.64
2019-05-25T14:05:29.323Z,21.78
2019-05-25T14:10:34.411Z,21.82
2019-05-25T14:15:39.540Z,22.31
2019-05-25T14:20:44.883Z,22.21
2019-05-25T14:25:50.039Z,22.00
2019-05-25T14:30:55.110Z,21.96
2019-05-25T14:36:00.329Z,21.92
2019-05-25T14:41:05.413Z,21.80
2019-05-25T14:46:10.469Z,22.18
2019-05-25T14:51:15.941Z,22.11
2019-05-25T14:56:21.013Z,21.71
2019-05-25T15:01:26.126Z,21.79
2019-05-25T15:06:31.162Z,21.71
2019-05-25T15:11:36.326Z,21.83
2019-05-25T15:16:41.423Z,21.62
2019-05-25T15:21:46.962Z,21.20
2019-05-25T15:26:52.383Z,20.87
2019-05-25T15:31:57.823Z,20.74
2019-05-25T15:37:03.265Z,20.56
2019-05-25T15:42:08.913Z,20.65
2019-05-25T15:47:13.979Z,20.64
2019-05-25T15:52:19.388Z,20.42
2019-05-25T15:57:24.819Z,20.49
2019-05-25T16:02:36.674Z,20.36
2019-05-25T16:07:40.834Z,20.17
2019-05-25T16:12:46.297Z,20.09
2019-05-25T16:17:51.385Z,20.05
2019-05-25T16:22:56.490Z,19.95
2019-05-25T16:28:01.561Z,20.01
2019-05-25T16:33:12.484Z,19.81
2019-05-25T16:38:13.371Z,19.70
2019-05-25T16:43:18.533Z,19.72
2019-05-25T16:48:23.875Z,19.58
2019-05-25T16:53:28.999Z,19.50
2019-05-25T16:58:34.021Z,19.52
2019-05-25T17:03:39.025Z,19.46
2019-05-25T17:08:44.105Z,19.37
2019-05-25T17:13:49.165Z,19.40
2019-05-25T17:18:54.396Z,19.36
2019-05-25T17:23:59.530Z,19.28
2019-05-25T17:29:04.579Z,19.22
2019-05-25T17:34:09.649Z,19.10
2019-05-25T17:39:14.750Z,19.08
2019-05-25T17:44:19.971Z,18.95
2019-05-25T17:49:25.124Z,18.99
2019-05-25T17:54:30.337Z,19.13
2019-05-25T17:59:35.449Z,19.06
2019-05-25T18:04:40.637Z,19.02
2019-05-25T18:09:46.023Z,18.81
2019-05-25T18:14:51.115Z,18.49
2019-05-25T18:19:56.281Z,18.40
2019-05-25T18:25:01.424Z,18.23
2019-05-25T18:30:06.991Z,18.16
2019-05-25T18:35:12.135Z,18.13
2019-05-25T18:40:17.456Z,18.04
2019-05-25T18:45:22.619Z,17.87
2019-05-25T18:50:27.765Z,17.75
2019-05-25T18:55:32.965Z,17.56
2019-05-25T19:00:38.273Z,17.38
2019-05-25T19:05:43.430Z,17.29
2019-05-25T19:10:48.541Z,17.20
2019-05-25T19:15:53.822Z,17.30
2019-05-25T19:20:59.195Z,17.13
2019-05-25T19:26:04.438Z,17.11
2019-05-25T19:31:09.624Z,16.94
2019-05-25T19:36:14.805Z,16.87
2019-05-25T19:41:20.043Z,16.82
2019-05-25T19:46:25.157Z,16.63
2019-05-25T19:51:31.089Z,16.62
2019-05-25T19:56:36.300Z,16.65
2019-05-25T20:01:41.573Z,16.57
2019-05-25T20:06:46.644Z,16.47
2019-05-25T20:11:52.245Z,16.46
2019-05-25T20:16:57.321Z,16.54
2019-05-25T20:22:02.385Z,16.49
2019-05-25T20:27:08.673Z,16.37
2019-05-25T20:32:14.017Z,16.36
2019-05-25T20:37:20.145Z,16.43
2019-05-25T20:42:26.336Z,16.48
2019-05-25T20:47:31.877Z,16.42
2019-05-25T20:52:37.002Z,16.38
2019-05-25T20:57:42.071Z,16.40
2019-05-25T21:03:02.013Z,16.41
2019-05-25T21:07:53.925Z,16.23
2019-05-25T21:12:59.069Z,16.19
2019-05-25T21:18:04.189Z,16.12
2019-05-25T21:23:09.225Z,16.05
2019-05-25T21:28:14.331Z,16.10
2019-05-25T21:33:19.359Z,16.04
2019-05-25T21:38:24.517Z,15.97
2019-05-25T21:43:29.565Z,15.93
2019-05-25T21:48:34.640Z,15.92
2019-05-25T21:53:39.905Z,15.98
2019-05-25T21:58:44.986Z,16.07
2019-05-25T22:03:50.206Z,16.06
2019-05-25T22:08:55.222Z,16.04
2019-05-25T22:14:00.352Z,16.01
2019-05-25T22:19:05.387Z,15.95
2019-05-25T22:24:10.513Z,15.98
2019-05-25T22:29:15.589Z,15.93
2019-05-25T22:34:20.632Z,15.89
2019-05-25T22:39:25.662Z,15.77
2019-05-25T22:44:37.185Z,15.70
2019-05-25T22:49:42.294Z,15.63
2019-05-25T22:54:47.489Z,15.38
2019-05-25T22:59:52.523Z,15.37
2019-05-25T23:05:00.044Z,15.40
2019-05-25T23:10:05.914Z,15.39
2019-05-25T23:15:11.159Z,15.31
2019-05-25T23:20:16.275Z,15.28
2019-05-25T23:25:21.304Z,15.25
2019-05-25T23:30:26.522Z,15.15
2019-05-25T23:35:31.674Z,14.95
2019-05-25T23:40:36.675Z,14.80
2019-05-25T23:45:41.814Z,14.67
2019-05-25T23:50:46.867Z,14.66
2019-05-25T23:55:51.913Z,14.48
